Other Surface Observations
Issued by NWS Great Falls, MT

Home | Current Version | Previous Version | Text Only | Print | Product List | Glossary On
Versions: 1 2 3 4 5 6 7 8 9 10 11 12 13 14 15 16 17 18 19 20 21 22 23 24 25 26 27 28 29 30 31 32 33 34 35 36 37 38 39 40 41 42 43 44 45 46 47 48 49 50
415
SXUS55 KTFX 210929
OSOTFX
AREA AWOS OBSERVATIONS
NATIONAL WEATHER SERVICE GREAT FALLS MT
0229 AM MST SAT JAN 21 2017

METAR KPWD 210930Z AUTO 27007KT 8SM M02/M03 A2931 RMK PLENTYWOOD
METAR KPO1 210930Z AUTO 25007KT 9SM M03/M04 A2935 RMK POPLAR
METAR K1S3 210930Z AUTO 00000KT 1/4SM M06/M06 A2936 RMK FORSYTH
METAR KS71 210930Z AUTO 33004KT 10SM M07/M08 A2937 RMK CHINOOK
METAR K79S 210930Z AUTO 10SM M05/M07 A2936 RMK FORT BENTON
METAR K38S 210930Z AUTO 00000KT 10SM M10/M13 A2934 RMK DEER LODGE
METAR K3U3 210930Z AUTO 17006KT 10SM M08/M13 A2931 RMK ANACONDA
METAR K6S5 210930Z AUTO 00000KT 10SM M06/M09 A2932 RMK HAMILTON
METAR K88M 210930Z AUTO 00000KT 10SM M08/M09 A2938 RMK EUREKA



USA.gov is the U.S. government's official web portal to all federal, state and local government web resources and services.